Noyabr'sk, Russia
Current Conditions -  °F | °C
As of 6:30 AM on Tuesday 25 Nov 2014 (Local Time) from USRR Reporting Station
Snow Showers Snow Showers  
Wind Chill:   Ceiling: Unl
Heat Index: 18°   Visibility: 0.81mi
Dew Point: 14°   Wind: 11mph
Humidity: 86%   Direction: 250°WSW
Pressure: 29.53"   Gusts: NA
Location:  64.34°N, 76.21°E
Report Text: USRR 250130Z 25005MPS 1300 R25/P1500 SHSN SCT028CB SCT037M08/M10 Q1000 TEMPO 1000 SHSN RMK OBST OBSC QFE745 25////35
Loading
Personal Weather Stations






























Interactive Weather Map New forecast layout! Learn more

10-Day Weather Forecast

Advertisements
Track Severe Weather on mobile